Aviation Digital Data Service (ADDS)

Output produced by METARs form (1745 UTC 25 March 2019)
found at http://www.aviationweather.gov/metar/data/
 
METAR text: ZGSZ 251700Z 30003MPS 3100 BR BKN025 20/18 Q1018 NOSIG
Conditions at: ZGSZ (SHENZHEN , CN) observed 1700 UTC 25 March 2019
Temperature: 20.0°C (68°F)
Dewpoint: 18.0°C (64°F) [RH = 88%]
Pressure (altimeter): 30.06 inches Hg (1018.0 mb)
Winds: from the WNW (300 degrees) at 7 MPH (6 knots; 3.1 m/s)
Visibility: 1.93 miles (3.11 km)
Ceiling: 2500 feet AGL
Clouds: broken clouds at 2500 feet AGL
Weather: BR  (mist)

METAR text: ZGSZ 251600Z 00000MPS 4000 BR BKN027 20/18 Q1018 NOSIG
Conditions at: ZGSZ (SHENZHEN , CN) observed 1600 UTC 25 March 2019
Temperature: 20.0°C (68°F)
Dewpoint: 18.0°C (64°F) [RH = 88%]
Pressure (altimeter): 30.06 inches Hg (1018.0 mb)
Winds: calm
Visibility: 2.49 miles (4.01 km)
Ceiling: 2700 feet AGL
Clouds: broken clouds at 2700 feet AGL
Weather: BR  (mist)

METAR text: ZGSZ 251500Z 36002MPS 3500 BR BKN027 20/18 Q1018 NOSIG
Conditions at: ZGSZ (SHENZHEN , CN) observed 1500 UTC 25 March 2019
Temperature: 20.0°C (68°F)
Dewpoint: 18.0°C (64°F) [RH = 88%]
Pressure (altimeter): 30.06 inches Hg (1018.0 mb)
Winds: from the N (360 degrees) at 5 MPH (4 knots; 2.1 m/s)
Visibility: 2.17 miles (3.49 km)
Ceiling: 2700 feet AGL
Clouds: broken clouds at 2700 feet AGL
Weather: BR  (mist)

METAR text: ZGSZ 251400Z 32002MPS 3500 BR BKN027 20/18 Q1018 NOSIG
Conditions at: ZGSZ (SHENZHEN , CN) observed 1400 UTC 25 March 2019
Temperature: 20.0°C (68°F)
Dewpoint: 18.0°C (64°F) [RH = 88%]
Pressure (altimeter): 30.06 inches Hg (1018.0 mb)
Winds: from the NW (320 degrees) at 5 MPH (4 knots; 2.1 m/s)
Visibility: 2.17 miles (3.49 km)
Ceiling: 2700 feet AGL
Clouds: broken clouds at 2700 feet AGL
Weather: BR  (mist)

METAR text: ZGSZ 251300Z 31001MPS 6000 BKN027 20/18 Q1017 NOSIG
Conditions at: ZGSZ (SHENZHEN , CN) observed 1300 UTC 25 March 2019
Temperature: 20.0°C (68°F)
Dewpoint: 18.0°C (64°F) [RH = 88%]
Pressure (altimeter): 30.03 inches Hg (1017.0 mb)
Winds: from the NW (310 degrees) at 2 MPH (2 knots; 1.0 m/s)
Visibility: 4 miles ( 6 km)
Ceiling: 2700 feet AGL
Clouds: broken clouds at 2700 feet AGL
Weather: no significant weather observed at this time

METAR text: ZGSZ 251200Z 05002MPS 8000 BKN030 20/18 Q1016 NOSIG
Conditions at: ZGSZ (SHENZHEN , CN) observed 1200 UTC 25 March 2019
Temperature: 20.0°C (68°F)
Dewpoint: 18.0°C (64°F) [RH = 88%]
Pressure (altimeter): 30.00 inches Hg (1016.0 mb)
Winds: from the NE (50 degrees) at 5 MPH (4 knots; 2.1 m/s)
Visibility: 5 miles ( 8 km)
Ceiling: 3000 feet AGL
Clouds: broken clouds at 3000 feet AGL
Weather: no significant weather observed at this time

METAR text: ZGSZ 251100Z 02002MPS 340V050 7000 BKN030 20/17 Q1016 NOSIG
Conditions at: ZGSZ (SHENZHEN , CN) observed 1100 UTC 25 March 2019
Temperature: 20.0°C (68°F)
Dewpoint: 17.0°C (63°F) [RH = 83%]
Pressure (altimeter): 30.00 inches Hg (1016.0 mb)
Winds: from the NNE (20 degrees) at 5 MPH (4 knots; 2.1 m/s)
Visibility: 4 miles ( 7 km)
Ceiling: 3000 feet AGL
Clouds: broken clouds at 3000 feet AGL
Weather: no significant weather observed at this time

METAR text: ZGSZ 251000Z 36002MPS 340V050 6000 BKN030 20/17 Q1016 NOSIG
Conditions at: ZGSZ (SHENZHEN , CN) observed 1000 UTC 25 March 2019
Temperature: 20.0°C (68°F)
Dewpoint: 17.0°C (63°F) [RH = 83%]
Pressure (altimeter): 30.00 inches Hg (1016.0 mb)
Winds: from the N (360 degrees) at 5 MPH (4 knots; 2.1 m/s)
Visibility: 4 miles ( 6 km)
Ceiling: 3000 feet AGL
Clouds: broken clouds at 3000 feet AGL
Weather: no significant weather observed at this time

METAR text: ZGSZ 250900Z 34002MPS 290V360 6000 BKN033 20/17 Q1015 NOSIG
Conditions at: ZGSZ (SHENZHEN , CN) observed 0900 UTC 25 March 2019
Temperature: 20.0°C (68°F)
Dewpoint: 17.0°C (63°F) [RH = 83%]
Pressure (altimeter): 29.97 inches Hg (1015.0 mb)
Winds: from the NNW (340 degrees) at 5 MPH (4 knots; 2.1 m/s)
Visibility: 4 miles ( 6 km)
Ceiling: 3300 feet AGL
Clouds: broken clouds at 3300 feet AGL
Weather: no significant weather observed at this time

METAR text: ZGSZ 250800Z 36003MPS 8000 BKN033 20/17 Q1016 NOSIG
Conditions at: ZGSZ (SHENZHEN , CN) observed 0800 UTC 25 March 2019
Temperature: 20.0°C (68°F)
Dewpoint: 17.0°C (63°F) [RH = 83%]
Pressure (altimeter): 30.00 inches Hg (1016.0 mb)
Winds: from the N (360 degrees) at 7 MPH (6 knots; 3.1 m/s)
Visibility: 5 miles ( 8 km)
Ceiling: 3300 feet AGL
Clouds: broken clouds at 3300 feet AGL
Weather: no significant weather observed at this time

METAR text: ZGSZ 250700Z 35003MPS 320V020 8000 BKN033 20/17 Q1016 NOSIG
Conditions at: ZGSZ (SHENZHEN , CN) observed 0700 UTC 25 March 2019
Temperature: 20.0°C (68°F)
Dewpoint: 17.0°C (63°F) [RH = 83%]
Pressure (altimeter): 30.00 inches Hg (1016.0 mb)
Winds: from the N (350 degrees) at 7 MPH (6 knots; 3.1 m/s)
Visibility: 5 miles ( 8 km)
Ceiling: 3300 feet AGL
Clouds: broken clouds at 3300 feet AGL
Weather: no significant weather observed at this time

METAR text: ZGSZ 250600Z 03003MPS 360V060 9999 FEW011 BKN033 19/16 Q1017 NOSIG
Conditions at: ZGSZ (SHENZHEN , CN) observed 0600 UTC 25 March 2019
Temperature: 19.0°C (66°F)
Dewpoint: 16.0°C (61°F) [RH = 83%]
Pressure (altimeter): 30.03 inches Hg (1017.0 mb)
Winds: from the NNE (30 degrees) at 7 MPH (6 knots; 3.1 m/s)
Visibility: 6 or more miles (10+ km)
Ceiling: 3300 feet AGL
Clouds: few clouds at 1100 feet AGL
broken clouds at 3300 feet AGL
Weather: no significant weather observed at this time

METAR text: ZGSZ 250500Z 35003MPS 9999 BKN033 19/17 Q1018 NOSIG
Conditions at: ZGSZ (SHENZHEN , CN) observed 0500 UTC 25 March 2019
Temperature: 19.0°C (66°F)
Dewpoint: 17.0°C (63°F) [RH = 88%]
Pressure (altimeter): 30.06 inches Hg (1018.0 mb)
Winds: from the N (350 degrees) at 7 MPH (6 knots; 3.1 m/s)
Visibility: 6 or more miles (10+ km)
Ceiling: 3300 feet AGL
Clouds: broken clouds at 3300 feet AGL
Weather: no significant weather observed at this time

METAR text: ZGSZ 250400Z 36005MPS 9999 BKN033 20/17 Q1019 NOSIG
Conditions at: ZGSZ (SHENZHEN , CN) observed 0400 UTC 25 March 2019
Temperature: 20.0°C (68°F)
Dewpoint: 17.0°C (63°F) [RH = 83%]
Pressure (altimeter): 30.09 inches Hg (1019.0 mb)
Winds: from the N (360 degrees) at 12 MPH (10 knots; 5.1 m/s)
Visibility: 6 or more miles (10+ km)
Ceiling: 3300 feet AGL
Clouds: broken clouds at 3300 feet AGL
Weather: no significant weather observed at this time

METAR text: ZGSZ 250300Z 07004MPS 040V100 9999 BKN033 19/17 Q1019 NOSIG
Conditions at: ZGSZ (SHENZHEN , CN) observed 0300 UTC 25 March 2019
Temperature: 19.0°C (66°F)
Dewpoint: 17.0°C (63°F) [RH = 88%]
Pressure (altimeter): 30.09 inches Hg (1019.0 mb)
Winds: from the ENE (70 degrees) at 9 MPH (8 knots; 4.1 m/s)
Visibility: 6 or more miles (10+ km)
Ceiling: 3300 feet AGL
Clouds: broken clouds at 3300 feet AGL
Weather: no significant weather observed at this time

METAR text: ZGSZ 250200Z 07003MPS 9999 SCT020 BKN033 18/16 Q1019 NOSIG
Conditions at: ZGSZ (SHENZHEN , CN) observed 0200 UTC 25 March 2019
Temperature: 18.0°C (64°F)
Dewpoint: 16.0°C (61°F) [RH = 88%]
Pressure (altimeter): 30.09 inches Hg (1019.0 mb)
Winds: from the ENE (70 degrees) at 7 MPH (6 knots; 3.1 m/s)
Visibility: 6 or more miles (10+ km)
Ceiling: 3300 feet AGL
Clouds: scattered clouds at 2000 feet AGL
broken clouds at 3300 feet AGL
Weather: no significant weather observed at this time

METAR text: ZGSZ 250100Z 02002MPS 340V040 8000 -SHRA FEW008 BKN026 17/16 Q1019 NOSIG
Conditions at: ZGSZ (SHENZHEN , CN) observed 0100 UTC 25 March 2019
Temperature: 17.0°C (63°F)
Dewpoint: 16.0°C (61°F) [RH = 94%]
Pressure (altimeter): 30.09 inches Hg (1019.0 mb)
Winds: from the NNE (20 degrees) at 5 MPH (4 knots; 2.1 m/s)
Visibility: 5 miles ( 8 km)
Ceiling: 2600 feet AGL
Clouds: few clouds at 800 feet AGL
broken clouds at 2600 feet AGL
Weather: -SHRA  (light rain showers)

METAR text: ZGSZ 250000Z 36004MPS 6000 -SHRA SCT008 BKN026 16/15 Q1019 NOSIG
Conditions at: ZGSZ (SHENZHEN , CN) observed 0000 UTC 25 March 2019
Temperature: 16.0°C (61°F)
Dewpoint: 15.0°C (59°F) [RH = 94%]
Pressure (altimeter): 30.09 inches Hg (1019.0 mb)
Winds: from the N (360 degrees) at 9 MPH (8 knots; 4.1 m/s)
Visibility: 4 miles ( 6 km)
Ceiling: 2600 feet AGL
Clouds: scattered clouds at 800 feet AGL
broken clouds at 2600 feet AGL
Weather: -SHRA  (light rain showers)

METAR text: ZGSZ 242300Z 34006MPS 2800 -SHRA BR SCT007 BKN020 16/15 Q1018 NOSIG
Conditions at: ZGSZ (SHENZHEN , CN) observed 2300 UTC 24 March 2019
Temperature: 16.0°C (61°F)
Dewpoint: 15.0°C (59°F) [RH = 94%]
Pressure (altimeter): 30.06 inches Hg (1018.0 mb)
Winds: from the NNW (340 degrees) at 14 MPH (12 knots; 6.2 m/s)
Visibility: 1.74 miles (2.80 km)
Ceiling: 2000 feet AGL
Clouds: scattered clouds at 700 feet AGL
broken clouds at 2000 feet AGL
Weather: -SHRA BR  (light rain showers, mist)

METAR text: ZGSZ 242200Z 34004MPS 1100 R33/P2000 R34/P2000 BR SCT007 BKN020 17/16 Q1017 NOSIG
Conditions at: ZGSZ (SHENZHEN , CN) observed 2200 UTC 24 March 2019
Temperature: 17.0°C (63°F)
Dewpoint: 16.0°C (61°F) [RH = 94%]
Pressure (altimeter): 30.03 inches Hg (1017.0 mb)
Winds: from the NNW (340 degrees) at 9 MPH (8 knots; 4.1 m/s)
Visibility: 0.68 miles (1.09 km)
Ceiling: 2000 feet AGL
Clouds: scattered clouds at 700 feet AGL
broken clouds at 2000 feet AGL
Weather: BR  (mist)

METAR text: ZGSZ 242100Z 03003MPS 5000 BR SCT010 BKN026 17/16 Q1016 NOSIG
Conditions at: ZGSZ (SHENZHEN , CN) observed 2100 UTC 24 March 2019
Temperature: 17.0°C (63°F)
Dewpoint: 16.0°C (61°F) [RH = 94%]
Pressure (altimeter): 30.00 inches Hg (1016.0 mb)
Winds: from the NNE (30 degrees) at 7 MPH (6 knots; 3.1 m/s)
Visibility: 3 miles ( 5 km)
Ceiling: 2600 feet AGL
Clouds: scattered clouds at 1000 feet AGL
broken clouds at 2600 feet AGL
Weather: BR  (mist)

METAR text: ZGSZ 242000Z 34003MPS 3200 BR SCT010 BKN026 17/16 Q1016 NOSIG
Conditions at: ZGSZ (SHENZHEN , CN) observed 2000 UTC 24 March 2019
Temperature: 17.0°C (63°F)
Dewpoint: 16.0°C (61°F) [RH = 94%]
Pressure (altimeter): 30.00 inches Hg (1016.0 mb)
Winds: from the NNW (340 degrees) at 7 MPH (6 knots; 3.1 m/s)
Visibility: 1.99 miles (3.20 km)
Ceiling: 2600 feet AGL
Clouds: scattered clouds at 1000 feet AGL
broken clouds at 2600 feet AGL
Weather: BR  (mist)

METAR text: ZGSZ 241900Z 36003MPS 5000 BR SCT013 BKN026 18/16 Q1016 NOSIG
Conditions at: ZGSZ (SHENZHEN , CN) observed 1900 UTC 24 March 2019
Temperature: 18.0°C (64°F)
Dewpoint: 16.0°C (61°F) [RH = 88%]
Pressure (altimeter): 30.00 inches Hg (1016.0 mb)
Winds: from the N (360 degrees) at 7 MPH (6 knots; 3.1 m/s)
Visibility: 3 miles ( 5 km)
Ceiling: 2600 feet AGL
Clouds: scattered clouds at 1300 feet AGL
broken clouds at 2600 feet AGL
Weather: BR  (mist)

METAR text: ZGSZ 241800Z 34004MPS 5000 BR SCT015 BKN026 17/16 Q1016 NOSIG
Conditions at: ZGSZ (SHENZHEN , CN) observed 1800 UTC 24 March 2019
Temperature: 17.0°C (63°F)
Dewpoint: 16.0°C (61°F) [RH = 94%]
Pressure (altimeter): 30.00 inches Hg (1016.0 mb)
Winds: from the NNW (340 degrees) at 9 MPH (8 knots; 4.1 m/s)
Visibility: 3 miles ( 5 km)
Ceiling: 2600 feet AGL
Clouds: scattered clouds at 1500 feet AGL
broken clouds at 2600 feet AGL
Weather: BR  (mist)

METAR text: ZGSZ 241700Z 12007MPS 7000 NSC 17/16 Q1014 NOSIG
Conditions at: ZGSZ (SHENZHEN , CN) observed 1700 UTC 24 March 2019
Temperature: 17.0°C (63°F)
Dewpoint: 16.0°C (61°F) [RH = 94%]
Pressure (altimeter): 29.94 inches Hg (1014.0 mb)
Winds: from the ESE (120 degrees) at 16 MPH (14 knots; 7.2 m/s)
Visibility: 4 miles ( 7 km)
Ceiling: at least 12,000 feet AGL
Clouds: sky clear below 12,000 feet AGL
Weather: no significant weather observed at this time

METAR text: ZGSZ 241600Z 09003MPS 7000 SCT033 17/15 Q1017 NOSIG
Conditions at: ZGSZ (SHENZHEN , CN) observed 1600 UTC 24 March 2019
Temperature: 17.0°C (63°F)
Dewpoint: 15.0°C (59°F) [RH = 88%]
Pressure (altimeter): 30.03 inches Hg (1017.0 mb)
Winds: from the E (90 degrees) at 7 MPH (6 knots; 3.1 m/s)
Visibility: 4 miles ( 7 km)
Ceiling: at least 12,000 feet AGL
Clouds: scattered clouds at 3300 feet AGL
Weather: no significant weather observed at this time

METAR text: ZGSZ 241500Z 04003MPS 7000 -SHRA OVC022 17/15 Q1018 NOSIG
Conditions at: ZGSZ (SHENZHEN , CN) observed 1500 UTC 24 March 2019
Temperature: 17.0°C (63°F)
Dewpoint: 15.0°C (59°F) [RH = 88%]
Pressure (altimeter): 30.06 inches Hg (1018.0 mb)
Winds: from the NE (40 degrees) at 7 MPH (6 knots; 3.1 m/s)
Visibility: 4 miles ( 7 km)
Ceiling: 2200 feet AGL
Clouds: overcast cloud deck at 2200 feet AGL
Weather: -SHRA  (light rain showers)

METAR text: ZGSZ 241400Z 02004MPS 9999 SCT015 OVC027 17/15 Q1018 NOSIG
Conditions at: ZGSZ (SHENZHEN , CN) observed 1400 UTC 24 March 2019
Temperature: 17.0°C (63°F)
Dewpoint: 15.0°C (59°F) [RH = 88%]
Pressure (altimeter): 30.06 inches Hg (1018.0 mb)
Winds: from the NNE (20 degrees) at 9 MPH (8 knots; 4.1 m/s)
Visibility: 6 or more miles (10+ km)
Ceiling: 2700 feet AGL
Clouds: scattered clouds at 1500 feet AGL
overcast cloud deck at 2700 feet AGL
Weather: no significant weather observed at this time

METAR text: ZGSZ 241300Z 01004MPS 9999 SCT015 OVC027 17/14 Q1018 NOSIG
Conditions at: ZGSZ (SHENZHEN , CN) observed 1300 UTC 24 March 2019
Temperature: 17.0°C (63°F)
Dewpoint: 14.0°C (57°F) [RH = 82%]
Pressure (altimeter): 30.06 inches Hg (1018.0 mb)
Winds: from the N (10 degrees) at 9 MPH (8 knots; 4.1 m/s)
Visibility: 6 or more miles (10+ km)
Ceiling: 2700 feet AGL
Clouds: scattered clouds at 1500 feet AGL
overcast cloud deck at 2700 feet AGL
Weather: no significant weather observed at this time

METAR text: ZGSZ 241200Z 01002MPS 9999 SCT015 OVC027 17/15 Q1017 NOSIG
Conditions at: ZGSZ (SHENZHEN , CN) observed 1200 UTC 24 March 2019
Temperature: 17.0°C (63°F)
Dewpoint: 15.0°C (59°F) [RH = 88%]
Pressure (altimeter): 30.03 inches Hg (1017.0 mb)
Winds: from the N (10 degrees) at 5 MPH (4 knots; 2.1 m/s)
Visibility: 6 or more miles (10+ km)
Ceiling: 2700 feet AGL
Clouds: scattered clouds at 1500 feet AGL
overcast cloud deck at 2700 feet AGL
Weather: no significant weather observed at this time

METAR text: ZGSZ 241100Z 03002MPS 9999 SCT015 OVC027 17/15 Q1016 NOSIG
Conditions at: ZGSZ (SHENZHEN , CN) observed 1100 UTC 24 March 2019
Temperature: 17.0°C (63°F)
Dewpoint: 15.0°C (59°F) [RH = 88%]
Pressure (altimeter): 30.00 inches Hg (1016.0 mb)
Winds: from the NNE (30 degrees) at 5 MPH (4 knots; 2.1 m/s)
Visibility: 6 or more miles (10+ km)
Ceiling: 2700 feet AGL
Clouds: scattered clouds at 1500 feet AGL
overcast cloud deck at 2700 feet AGL
Weather: no significant weather observed at this time

METAR text: ZGSZ 241000Z 05003MPS 9000 SCT015 OVC027 17/15 Q1016 NOSIG
Conditions at: ZGSZ (SHENZHEN , CN) observed 1000 UTC 24 March 2019
Temperature: 17.0°C (63°F)
Dewpoint: 15.0°C (59°F) [RH = 88%]
Pressure (altimeter): 30.00 inches Hg (1016.0 mb)
Winds: from the NE (50 degrees) at 7 MPH (6 knots; 3.1 m/s)
Visibility: 6 miles ( 9 km)
Ceiling: 2700 feet AGL
Clouds: scattered clouds at 1500 feet AGL
overcast cloud deck at 2700 feet AGL
Weather: no significant weather observed at this time

METAR text: ZGSZ 240900Z 06004MPS 8000 SCT015 OVC027 17/15 Q1016 NOSIG
Conditions at: ZGSZ (SHENZHEN , CN) observed 0900 UTC 24 March 2019
Temperature: 17.0°C (63°F)
Dewpoint: 15.0°C (59°F) [RH = 88%]
Pressure (altimeter): 30.00 inches Hg (1016.0 mb)
Winds: from the ENE (60 degrees) at 9 MPH (8 knots; 4.1 m/s)
Visibility: 5 miles ( 8 km)
Ceiling: 2700 feet AGL
Clouds: scattered clouds at 1500 feet AGL
overcast cloud deck at 2700 feet AGL
Weather: no significant weather observed at this time

METAR text: ZGSZ 240800Z 06004MPS 8000 SCT013 OVC027 17/14 Q1016 NOSIG
Conditions at: ZGSZ (SHENZHEN , CN) observed 0800 UTC 24 March 2019
Temperature: 17.0°C (63°F)
Dewpoint: 14.0°C (57°F) [RH = 82%]
Pressure (altimeter): 30.00 inches Hg (1016.0 mb)
Winds: from the ENE (60 degrees) at 9 MPH (8 knots; 4.1 m/s)
Visibility: 5 miles ( 8 km)
Ceiling: 2700 feet AGL
Clouds: scattered clouds at 1300 feet AGL
overcast cloud deck at 2700 feet AGL
Weather: no significant weather observed at this time

METAR text: ZGSZ 240700Z 04003MPS 8000 SCT013 OVC027 17/14 Q1017 NOSIG
Conditions at: ZGSZ (SHENZHEN , CN) observed 0700 UTC 24 March 2019
Temperature: 17.0°C (63°F)
Dewpoint: 14.0°C (57°F) [RH = 82%]
Pressure (altimeter): 30.03 inches Hg (1017.0 mb)
Winds: from the NE (40 degrees) at 7 MPH (6 knots; 3.1 m/s)
Visibility: 5 miles ( 8 km)
Ceiling: 2700 feet AGL
Clouds: scattered clouds at 1300 feet AGL
overcast cloud deck at 2700 feet AGL
Weather: no significant weather observed at this time

METAR text: ZGSZ 240600Z 02003MPS 8000 -SHRA SCT013 OVC027 17/14 Q1017 NOSIG
Conditions at: ZGSZ (SHENZHEN , CN) observed 0600 UTC 24 March 2019
Temperature: 17.0°C (63°F)
Dewpoint: 14.0°C (57°F) [RH = 82%]
Pressure (altimeter): 30.03 inches Hg (1017.0 mb)
Winds: from the NNE (20 degrees) at 7 MPH (6 knots; 3.1 m/s)
Visibility: 5 miles ( 8 km)
Ceiling: 2700 feet AGL
Clouds: scattered clouds at 1300 feet AGL
overcast cloud deck at 2700 feet AGL
Weather: -SHRA  (light rain showers)

Forecast for: ZGSZ (SHENZHEN , CN)
Text: TAF ZGSZ 251507Z 2518/2618 04004MPS 6000 BKN030 TX24/2606Z TN18/2522Z
Forecast period: 1800 UTC 25 March 2019 to 0300 UTC 26 March 2019
Forecast type: FROM: standard forecast or significant change
Winds: from the NE (40 degrees) at 9 MPH (8 knots; 4.1 m/s)
Visibility: 4 miles (6 km)
Ceiling: 3000 feet AGL
Clouds: broken clouds at 3000 feet AGL
Weather: no significant weather forecast for this period
Text: BECMG 2603/2604 24004MPS
Forecast period: 0300 to 0900 UTC 26 March 2019
Forecast type: BECOMING: Conditions expected to become as follows by 0400 UTC 26 March 2019
Winds: from the WSW (240 degrees) at 9 MPH (8 knots; 4.1 m/s)
Visibility: 4 miles (6 km)
Ceiling: 3000 feet AGL
Clouds: broken clouds at 3000 feet AGL
Weather: no significant weather forecast for this period
Text: BECMG 2609/2610 12004MPS
Forecast period: 0900 to 1800 UTC 26 March 2019
Forecast type: BECOMING: Conditions expected to become as follows by 1000 UTC 26 March 2019
Winds: from the ESE (120 degrees) at 9 MPH (8 knots; 4.1 m/s)
Visibility: 4 miles (6 km)
Ceiling: 3000 feet AGL
Clouds: broken clouds at 3000 feet AGL
Weather: no significant weather forecast for this period